Terminal Aerodrome Forecast
Issued by NWS Cleveland, OH

Home | Current Version | Previous Version | Text Only | Print | Product List | Glossary On
Versions: 1 2 3 4 5 6 7 8 9 10 11 12 13 14 15 16 17 18
315
FTUS41 KCLE 011329 AAA
TAFERI
TAF AMD
KERI 011329Z 0113/0212 11006KT P6SM SCT015 OVC050
      TEMPO 0113/0115 5SM -SHRA OVC015
     FM011600 11008KT P6SM VCSH BKN025
     FM011900 09007KT P6SM VCSH BKN035
     FM020100 18004KT P6SM VCSH BKN035=

USA.gov is the U.S. government's official web portal to all federal, state and local government web resources and services.